Portada
METAR-TAF:

METAR-TAF

Aeropuertos :

Suhag, Egipto

latitud: 26-20-25N, longitud: 31-44-20E, altitud: 70 m

Observación

El informe se hizo hace 1 hora y 22 minutos, a las 02:00 UTC
Viento 6 kt del suroeste
Temperatura 24°C
Humedad 47%
Presión 1010 hPa
Visibilidad 10 km o más
sin nubes por debajo de 1500 m y sin presencia de cumulonimbus.

METAR: HESG 240200Z 22006KT CAVOK 24/12 Q1010 NOSIG

Hora: 05:22 (03:22 UTC)

Pronóstico

El informe se hizo hace 4 horas y 22 minutos, a las 23:00 UTC
Pronóstico válido del 24 a las 00 UTC al 25 a las 06 UTC
Viento 10 kt del norte-noroeste
Visibilidad 10 km o más
sin nubes por debajo de 1500 m y sin presencia de cumulonimbus.

TAF: HESG 232300Z 2400/2506 33010KT CAVOK

Observaciones y pronósticos meteorológicos de más de 4000 aeropuertos (mensajes METAR y TAF).

Los puntos amarillos y rojos representan las estaciones disponibles.

Ponga el ratón en el punto deseado para ver el nombre de la estación.

Haga clic para ver las observaciones y los pronósticos meteorológicos.

Para cambiar el mapa : haga clic en los botones verdes con una cruz de color negro para hacer un zoom, en el botón verde con un guión para alejar o en las flechas verdes para mapas adyacentes.


METAR-TAF: